sensor_id;sensor_type;location;lat;lon;timestamp;P1;durP1;ratioP1;P2;durP2;ratioP2
8219;SDS011;4151;51.110;7.020;2023-04-03T00:01:26;5.83;;;4.30;;
8219;SDS011;4151;51.110;7.020;2023-04-03T00:03:51;8.80;;;4.53;;
8219;SDS011;4151;51.110;7.020;2023-04-03T00:06:17;7.40;;;4.63;;
8219;SDS011;4151;51.110;7.020;2023-04-03T00:08:43;6.80;;;4.60;;
8219;SDS011;4151;51.110;7.020;2023-04-03T00:11:09;5.23;;;3.87;;
8219;SDS011;4151;51.110;7.020;2023-04-03T00:13:35;9.70;;;5.57;;
8219;SDS011;4151;51.110;7.020;2023-04-03T00:16:02;8.37;;;5.17;;
8219;SDS011;4151;51.110;7.020;2023-04-03T00:18:28;7.83;;;4.40;;
8219;SDS011;4151;51.110;7.020;2023-04-03T00:20:54;10.20;;;5.93;;
8219;SDS011;4151;51.110;7.020;2023-04-03T00:23:20;6.73;;;4.83;;
8219;SDS011;4151;51.110;7.020;2023-04-03T00:25:45;4.87;;;4.20;;
8219;SDS011;4151;51.110;7.020;2023-04-03T00:28:11;7.93;;;5.20;;
8219;SDS011;4151;51.110;7.020;2023-04-03T00:30:37;5.57;;;4.13;;
8219;SDS011;4151;51.110;7.020;2023-04-03T00:33:03;8.33;;;5.27;;
8219;SDS011;4151;51.110;7.020;2023-04-03T00:35:28;8.83;;;5.77;;
8219;SDS011;4151;51.110;7.020;2023-04-03T00:37:54;8.00;;;5.00;;
8219;SDS011;4151;51.110;7.020;2023-04-03T00:40:22;9.83;;;5.27;;
8219;SDS011;4151;51.110;7.020;2023-04-03T00:42:51;6.67;;;5.47;;
8219;SDS011;4151;51.110;7.020;2023-04-03T00:45:25;8.17;;;5.90;;
8219;SDS011;4151;51.110;7.020;2023-04-03T00:47:54;10.17;;;5.53;;
8219;SDS011;4151;51.110;7.020;2023-04-03T00:50:21;6.80;;;4.57;;
8219;SDS011;4151;51.110;7.020;2023-04-03T00:52:47;8.50;;;5.60;;
8219;SDS011;4151;51.110;7.020;2023-04-03T00:55:14;8.20;;;5.00;;
8219;SDS011;4151;51.110;7.020;2023-04-03T00:57:41;7.33;;;5.33;;
8219;SDS011;4151;51.110;7.020;2023-04-03T01:00:08;9.10;;;5.00;;
8219;SDS011;4151;51.110;7.020;2023-04-03T01:02:36;7.13;;;5.50;;
8219;SDS011;4151;51.110;7.020;2023-04-03T01:05:02;9.13;;;5.33;;
8219;SDS011;4151;51.110;7.020;2023-04-03T01:07:30;8.70;;;5.00;;
8219;SDS011;4151;51.110;7.020;2023-04-03T01:09:57;14.57;;;8.00;;
8219;SDS011;4151;51.110;7.020;2023-04-03T01:12:29;26.97;;;12.27;;
8219;SDS011;4151;51.110;7.020;2023-04-03T01:14:58;23.47;;;12.20;;
8219;SDS011;4151;51.110;7.020;2023-04-03T01:17:33;8.80;;;5.60;;
8219;SDS011;4151;51.110;7.020;2023-04-03T01:25:52;8.63;;;5.50;;
8219;SDS011;4151;51.110;7.020;2023-04-03T01:28:22;6.30;;;5.20;;
8219;SDS011;4151;51.110;7.020;2023-04-03T01:30:56;7.03;;;4.70;;
8219;SDS011;4151;51.110;7.020;2023-04-03T01:33:23;10.20;;;4.50;;
8219;SDS011;4151;51.110;7.020;2023-04-03T01:35:49;7.37;;;5.20;;
8219;SDS011;4151;51.110;7.020;2023-04-03T01:38:15;5.17;;;4.50;;
8219;SDS011;4151;51.110;7.020;2023-04-03T01:40:40;9.53;;;5.70;;
8219;SDS011;4151;51.110;7.020;2023-04-03T01:43:06;10.70;;;5.20;;
8219;SDS011;4151;51.110;7.020;2023-04-03T01:45:32;6.30;;;4.83;;
8219;SDS011;4151;51.110;7.020;2023-04-03T01:47:58;8.07;;;5.23;;
8219;SDS011;4151;51.110;7.020;2023-04-03T01:50:23;6.93;;;5.13;;
8219;SDS011;4151;51.110;7.020;2023-04-03T01:52:49;8.10;;;5.30;;
8219;SDS011;4151;51.110;7.020;2023-04-03T01:55:15;7.33;;;4.97;;
8219;SDS011;4151;51.110;7.020;2023-04-03T01:57:40;7.10;;;4.77;;
8219;SDS011;4151;51.110;7.020;2023-04-03T02:00:06;6.70;;;4.90;;
8219;SDS011;4151;51.110;7.020;2023-04-03T02:02:32;7.27;;;4.63;;
8219;SDS011;4151;51.110;7.020;2023-04-03T02:04:58;5.73;;;4.50;;
8219;SDS011;4151;51.110;7.020;2023-04-03T02:07:23;6.87;;;4.53;;
8219;SDS011;4151;51.110;7.020;2023-04-03T02:09:49;10.00;;;4.87;;
8219;SDS011;4151;51.110;7.020;2023-04-03T02:12:15;12.40;;;5.27;;
8219;SDS011;4151;51.110;7.020;2023-04-03T02:14:40;9.73;;;4.37;;
8219;SDS011;4151;51.110;7.020;2023-04-03T02:17:06;7.83;;;5.23;;
8219;SDS011;4151;51.110;7.020;2023-04-03T02:19:33;8.23;;;5.47;;
8219;SDS011;4151;51.110;7.020;2023-04-03T02:22:00;7.77;;;4.47;;
8219;SDS011;4151;51.110;7.020;2023-04-03T02:24:27;6.60;;;4.30;;
8219;SDS011;4151;51.110;7.020;2023-04-03T02:26:52;6.90;;;4.03;;
8219;SDS011;4151;51.110;7.020;2023-04-03T02:29:18;16.80;;;4.57;;
8219;SDS011;4151;51.110;7.020;2023-04-03T02:31:43;10.70;;;5.07;;
8219;SDS011;4151;51.110;7.020;2023-04-03T02:34:09;9.30;;;4.53;;
8219;SDS011;4151;51.110;7.020;2023-04-03T02:36:35;7.33;;;4.30;;
8219;SDS011;4151;51.110;7.020;2023-04-03T02:39:00;6.70;;;4.63;;
8219;SDS011;4151;51.110;7.020;2023-04-03T02:41:26;8.00;;;4.50;;
8219;SDS011;4151;51.110;7.020;2023-04-03T02:43:58;6.23;;;4.70;;
8219;SDS011;4151;51.110;7.020;2023-04-03T02:46:24;7.60;;;4.40;;
8219;SDS011;4151;51.110;7.020;2023-04-03T02:48:49;6.63;;;4.40;;
8219;SDS011;4151;51.110;7.020;2023-04-03T02:51:15;7.10;;;3.57;;
8219;SDS011;4151;51.110;7.020;2023-04-03T02:53:41;7.03;;;4.23;;
8219;SDS011;4151;51.110;7.020;2023-04-03T02:56:06;7.73;;;3.93;;
8219;SDS011;4151;51.110;7.020;2023-04-03T02:58:32;13.30;;;4.33;;
8219;SDS011;4151;51.110;7.020;2023-04-03T03:00:57;6.07;;;4.13;;
8219;SDS011;4151;51.110;7.020;2023-04-03T03:03:23;5.80;;;4.10;;
8219;SDS011;4151;51.110;7.020;2023-04-03T03:05:48;8.43;;;4.60;;
8219;SDS011;4151;51.110;7.020;2023-04-03T03:08:14;7.93;;;4.50;;
8219;SDS011;4151;51.110;7.020;2023-04-03T03:10:40;6.93;;;4.40;;
8219;SDS011;4151;51.110;7.020;2023-04-03T03:13:05;5.83;;;4.23;;
8219;SDS011;4151;51.110;7.020;2023-04-03T03:15:31;6.03;;;4.50;;
8219;SDS011;4151;51.110;7.020;2023-04-03T03:17:56;7.37;;;4.10;;
8219;SDS011;4151;51.110;7.020;2023-04-03T03:20:22;5.27;;;4.27;;
8219;SDS011;4151;51.110;7.020;2023-04-03T03:22:47;17.83;;;4.80;;
8219;SDS011;4151;51.110;7.020;2023-04-03T03:25:13;9.20;;;4.80;;
8219;SDS011;4151;51.110;7.020;2023-04-03T03:27:38;6.13;;;3.73;;
8219;SDS011;4151;51.110;7.020;2023-04-03T03:30:05;6.80;;;3.93;;
8219;SDS011;4151;51.110;7.020;2023-04-03T03:32:31;7.20;;;4.30;;
8219;SDS011;4151;51.110;7.020;2023-04-03T03:34:56;3.77;;;3.40;;
8219;SDS011;4151;51.110;7.020;2023-04-03T03:37:22;9.60;;;4.10;;
8219;SDS011;4151;51.110;7.020;2023-04-03T03:39:47;7.10;;;4.03;;
8219;SDS011;4151;51.110;7.020;2023-04-03T03:42:13;8.53;;;3.67;;
8219;SDS011;4151;51.110;7.020;2023-04-03T03:44:39;5.93;;;3.87;;
8219;SDS011;4151;51.110;7.020;2023-04-03T03:47:05;6.60;;;3.87;;
8219;SDS011;4151;51.110;7.020;2023-04-03T03:49:31;12.10;;;4.37;;
8219;SDS011;4151;51.110;7.020;2023-04-03T03:51:56;11.40;;;4.37;;
8219;SDS011;4151;51.110;7.020;2023-04-03T03:54:22;8.53;;;4.00;;
8219;SDS011;4151;51.110;7.020;2023-04-03T03:56:47;6.77;;;3.47;;
8219;SDS011;4151;51.110;7.020;2023-04-03T03:59:13;9.20;;;4.03;;
8219;SDS011;4151;51.110;7.020;2023-04-03T04:01:38;4.20;;;2.90;;
8219;SDS011;4151;51.110;7.020;2023-04-03T04:04:04;4.03;;;3.57;;
8219;SDS011;4151;51.110;7.020;2023-04-03T04:06:30;7.80;;;3.87;;
8219;SDS011;4151;51.110;7.020;2023-04-03T04:08:55;3.60;;;2.93;;
8219;SDS011;4151;51.110;7.020;2023-04-03T04:11:21;6.40;;;3.63;;
8219;SDS011;4151;51.110;7.020;2023-04-03T04:13:47;3.30;;;2.97;;
8219;SDS011;4151;51.110;7.020;2023-04-03T04:16:12;8.77;;;3.20;;
8219;SDS011;4151;51.110;7.020;2023-04-03T04:18:38;9.33;;;3.03;;
8219;SDS011;4151;51.110;7.020;2023-04-03T04:21:03;7.47;;;3.30;;
8219;SDS011;4151;51.110;7.020;2023-04-03T04:23:29;3.17;;;2.43;;
8219;SDS011;4151;51.110;7.020;2023-04-03T04:25:55;5.93;;;2.60;;
8219;SDS011;4151;51.110;7.020;2023-04-03T04:28:20;7.67;;;3.63;;
8219;SDS011;4151;51.110;7.020;2023-04-03T04:30:46;5.43;;;2.90;;
8219;SDS011;4151;51.110;7.020;2023-04-03T04:33:11;3.80;;;2.80;;
8219;SDS011;4151;51.110;7.020;2023-04-03T04:35:38;4.27;;;2.73;;
8219;SDS011;4151;51.110;7.020;2023-04-03T04:38:04;6.80;;;2.70;;
8219;SDS011;4151;51.110;7.020;2023-04-03T04:40:30;4.10;;;2.20;;
8219;SDS011;4151;51.110;7.020;2023-04-03T04:42:55;7.33;;;2.47;;
8219;SDS011;4151;51.110;7.020;2023-04-03T04:45:21;2.80;;;2.33;;
8219;SDS011;4151;51.110;7.020;2023-04-03T04:47:47;2.60;;;2.40;;
8219;SDS011;4151;51.110;7.020;2023-04-03T04:50:12;4.00;;;2.17;;
8219;SDS011;4151;51.110;7.020;2023-04-03T04:52:38;4.13;;;2.50;;
8219;SDS011;4151;51.110;7.020;2023-04-03T04:55:03;2.23;;;1.97;;
8219;SDS011;4151;51.110;7.020;2023-04-03T04:57:29;7.13;;;2.43;;
8219;SDS011;4151;51.110;7.020;2023-04-03T04:59:55;2.93;;;2.20;;
8219;SDS011;4151;51.110;7.020;2023-04-03T05:02:20;2.87;;;2.27;;
8219;SDS011;4151;51.110;7.020;2023-04-03T05:04:46;14.07;;;2.33;;
8219;SDS011;4151;51.110;7.020;2023-04-03T05:07:12;4.80;;;1.90;;
8219;SDS011;4151;51.110;7.020;2023-04-03T05:09:37;4.50;;;2.07;;
8219;SDS011;4151;51.110;7.020;2023-04-03T05:12:03;3.83;;;2.20;;
8219;SDS011;4151;51.110;7.020;2023-04-03T05:14:29;4.83;;;2.70;;
8219;SDS011;4151;51.110;7.020;2023-04-03T05:16:55;2.17;;;1.73;;
8219;SDS011;4151;51.110;7.020;2023-04-03T05:19:20;5.80;;;1.97;;
8219;SDS011;4151;51.110;7.020;2023-04-03T05:21:46;4.73;;;2.67;;
8219;SDS011;4151;51.110;7.020;2023-04-03T05:24:12;5.33;;;2.97;;
8219;SDS011;4151;51.110;7.020;2023-04-03T05:26:38;5.90;;;2.03;;
8219;SDS011;4151;51.110;7.020;2023-04-03T05:29:04;3.43;;;2.03;;
8219;SDS011;4151;51.110;7.020;2023-04-03T05:31:30;8.00;;;3.97;;
8219;SDS011;4151;51.110;7.020;2023-04-03T05:33:55;3.37;;;2.20;;
8219;SDS011;4151;51.110;7.020;2023-04-03T05:36:21;4.67;;;2.23;;
8219;SDS011;4151;51.110;7.020;2023-04-03T05:38:47;5.90;;;2.27;;
8219;SDS011;4151;51.110;7.020;2023-04-03T05:41:13;4.93;;;1.87;;
8219;SDS011;4151;51.110;7.020;2023-04-03T05:43:39;2.50;;;1.80;;
8219;SDS011;4151;51.110;7.020;2023-04-03T05:46:11;4.53;;;2.47;;
8219;SDS011;4151;51.110;7.020;2023-04-03T05:48:38;6.00;;;2.13;;
8219;SDS011;4151;51.110;7.020;2023-04-03T05:51:04;9.27;;;2.50;;
8219;SDS011;4151;51.110;7.020;2023-04-03T05:53:31;7.40;;;2.83;;
8219;SDS011;4151;51.110;7.020;2023-04-03T05:56:00;4.97;;;2.13;;
8219;SDS011;4151;51.110;7.020;2023-04-03T05:58:26;4.83;;;2.80;;
8219;SDS011;4151;51.110;7.020;2023-04-03T06:00:52;2.97;;;2.30;;
8219;SDS011;4151;51.110;7.020;2023-04-03T06:03:17;3.80;;;2.37;;
8219;SDS011;4151;51.110;7.020;2023-04-03T06:05:43;8.43;;;2.30;;
8219;SDS011;4151;51.110;7.020;2023-04-03T06:08:08;8.00;;;2.07;;
8219;SDS011;4151;51.110;7.020;2023-04-03T06:10:34;5.97;;;2.23;;
8219;SDS011;4151;51.110;7.020;2023-04-03T06:13:01;5.40;;;2.30;;
8219;SDS011;4151;51.110;7.020;2023-04-03T06:15:26;3.20;;;2.17;;
8219;SDS011;4151;51.110;7.020;2023-04-03T06:17:52;12.70;;;2.27;;
8219;SDS011;4151;51.110;7.020;2023-04-03T06:20:18;8.77;;;2.57;;
8219;SDS011;4151;51.110;7.020;2023-04-03T06:22:43;6.43;;;2.57;;
8219;SDS011;4151;51.110;7.020;2023-04-03T06:25:09;6.73;;;2.60;;
8219;SDS011;4151;51.110;7.020;2023-04-03T06:27:35;4.90;;;2.87;;
8219;SDS011;4151;51.110;7.020;2023-04-03T06:30:00;3.13;;;2.27;;
8219;SDS011;4151;51.110;7.020;2023-04-03T06:32:26;2.93;;;2.10;;
8219;SDS011;4151;51.110;7.020;2023-04-03T06:34:51;11.50;;;3.93;;
8219;SDS011;4151;51.110;7.020;2023-04-03T06:37:19;8.67;;;2.67;;
8219;SDS011;4151;51.110;7.020;2023-04-03T06:39:47;7.03;;;3.23;;
8219;SDS011;4151;51.110;7.020;2023-04-03T06:42:13;5.40;;;2.63;;
8219;SDS011;4151;51.110;7.020;2023-04-03T06:44:39;7.33;;;2.00;;
8219;SDS011;4151;51.110;7.020;2023-04-03T06:47:04;7.13;;;2.40;;
8219;SDS011;4151;51.110;7.020;2023-04-03T06:49:30;6.07;;;3.30;;
8219;SDS011;4151;51.110;7.020;2023-04-03T06:51:56;5.00;;;2.30;;
8219;SDS011;4151;51.110;7.020;2023-04-03T06:54:22;11.93;;;5.27;;
8219;SDS011;4151;51.110;7.020;2023-04-03T06:56:48;3.43;;;2.47;;
8219;SDS011;4151;51.110;7.020;2023-04-03T06:59:14;3.13;;;2.40;;
8219;SDS011;4151;51.110;7.020;2023-04-03T07:01:40;2.83;;;2.10;;
8219;SDS011;4151;51.110;7.020;2023-04-03T07:04:06;3.37;;;2.03;;
8219;SDS011;4151;51.110;7.020;2023-04-03T07:06:32;4.10;;;1.80;;
8219;SDS011;4151;51.110;7.020;2023-04-03T07:08:58;2.27;;;1.60;;
8219;SDS011;4151;51.110;7.020;2023-04-03T07:11:25;2.90;;;1.87;;
8219;SDS011;4151;51.110;7.020;2023-04-03T07:13:51;3.20;;;1.57;;
8219;SDS011;4151;51.110;7.020;2023-04-03T07:16:17;3.47;;;1.90;;
8219;SDS011;4151;51.110;7.020;2023-04-03T07:18:43;13.07;;;2.30;;
8219;SDS011;4151;51.110;7.020;2023-04-03T07:21:09;4.23;;;2.10;;
8219;SDS011;4151;51.110;7.020;2023-04-03T07:23:34;4.87;;;1.87;;
8219;SDS011;4151;51.110;7.020;2023-04-03T07:26:00;6.20;;;2.20;;
8219;SDS011;4151;51.110;7.020;2023-04-03T07:28:26;3.50;;;1.83;;
8219;SDS011;4151;51.110;7.020;2023-04-03T07:30:53;3.60;;;1.97;;
8219;SDS011;4151;51.110;7.020;2023-04-03T07:33:29;5.00;;;1.90;;
8219;SDS011;4151;51.110;7.020;2023-04-03T07:35:56;7.07;;;1.90;;
8219;SDS011;4151;51.110;7.020;2023-04-03T07:38:21;4.90;;;1.40;;
8219;SDS011;4151;51.110;7.020;2023-04-03T07:40:48;5.30;;;1.63;;
8219;SDS011;4151;51.110;7.020;2023-04-03T07:43:15;4.50;;;1.70;;
8219;SDS011;4151;51.110;7.020;2023-04-03T07:45:42;5.40;;;1.83;;
8219;SDS011;4151;51.110;7.020;2023-04-03T07:48:09;6.80;;;1.33;;
8219;SDS011;4151;51.110;7.020;2023-04-03T07:50:35;7.30;;;2.07;;
8219;SDS011;4151;51.110;7.020;2023-04-03T07:53:01;7.37;;;2.00;;
8219;SDS011;4151;51.110;7.020;2023-04-03T07:55:27;6.27;;;1.60;;
8219;SDS011;4151;51.110;7.020;2023-04-03T07:57:53;12.70;;;1.47;;
8219;SDS011;4151;51.110;7.020;2023-04-03T08:00:19;4.57;;;1.80;;
8219;SDS011;4151;51.110;7.020;2023-04-03T08:02:45;2.03;;;1.53;;
8219;SDS011;4151;51.110;7.020;2023-04-03T08:05:15;4.00;;;1.30;;
8219;SDS011;4151;51.110;7.020;2023-04-03T08:07:42;3.00;;;1.50;;
8219;SDS011;4151;51.110;7.020;2023-04-03T08:10:07;3.33;;;1.30;;
8219;SDS011;4151;51.110;7.020;2023-04-03T08:12:33;5.70;;;2.10;;
8219;SDS011;4151;51.110;7.020;2023-04-03T08:14:59;2.60;;;1.10;;
8219;SDS011;4151;51.110;7.020;2023-04-03T08:17:26;3.57;;;1.43;;
8219;SDS011;4151;51.110;7.020;2023-04-03T08:19:51;4.60;;;1.10;;
8219;SDS011;4151;51.110;7.020;2023-04-03T08:22:17;3.20;;;1.20;;
8219;SDS011;4151;51.110;7.020;2023-04-03T08:24:42;3.30;;;1.63;;
8219;SDS011;4151;51.110;7.020;2023-04-03T08:27:08;1.63;;;1.00;;
8219;SDS011;4151;51.110;7.020;2023-04-03T08:29:34;5.03;;;1.20;;
8219;SDS011;4151;51.110;7.020;2023-04-03T08:31:59;1.73;;;1.47;;
8219;SDS011;4151;51.110;7.020;2023-04-03T08:34:25;12.10;;;1.77;;
8219;SDS011;4151;51.110;7.020;2023-04-03T08:36:51;3.23;;;1.20;;
8219;SDS011;4151;51.110;7.020;2023-04-03T08:39:16;5.63;;;1.50;;
8219;SDS011;4151;51.110;7.020;2023-04-03T08:41:42;6.87;;;3.17;;
8219;SDS011;4151;51.110;7.020;2023-04-03T08:46:54;2.37;;;1.40;;
8219;SDS011;4151;51.110;7.020;2023-04-03T08:49:37;2.80;;;0.90;;
8219;SDS011;4151;51.110;7.020;2023-04-03T08:52:15;1.50;;;1.13;;
8219;SDS011;4151;51.110;7.020;2023-04-03T08:55:03;4.40;;;0.83;;
8219;SDS011;4151;51.110;7.020;2023-04-03T08:57:38;2.23;;;1.03;;
8219;SDS011;4151;51.110;7.020;2023-04-03T09:00:06;1.77;;;0.80;;
8219;SDS011;4151;51.110;7.020;2023-04-03T09:02:43;1.10;;;0.93;;
8219;SDS011;4151;51.110;7.020;2023-04-03T09:05:17;2.87;;;1.43;;
8219;SDS011;4151;51.110;7.020;2023-04-03T09:07:46;1.40;;;0.87;;
8219;SDS011;4151;51.110;7.020;2023-04-03T09:10:19;3.90;;;1.70;;
8219;SDS011;4151;51.110;7.020;2023-04-03T09:12:59;4.70;;;1.20;;
8219;SDS011;4151;51.110;7.020;2023-04-03T09:15:32;1.30;;;1.00;;
8219;SDS011;4151;51.110;7.020;2023-04-03T09:23:38;5.27;;;1.80;;
8219;SDS011;4151;51.110;7.020;2023-04-03T09:26:21;2.07;;;1.00;;
8219;SDS011;4151;51.110;7.020;2023-04-03T09:28:51;3.87;;;1.13;;
8219;SDS011;4151;51.110;7.020;2023-04-03T09:31:26;2.10;;;1.33;;
8219;SDS011;4151;51.110;7.020;2023-04-03T09:34:03;4.07;;;1.30;;
8219;SDS011;4151;51.110;7.020;2023-04-03T09:36:44;3.37;;;1.53;;
8219;SDS011;4151;51.110;7.020;2023-04-03T09:39:13;7.10;;;1.37;;
8219;SDS011;4151;51.110;7.020;2023-04-03T09:41:42;2.30;;;0.90;;
8219;SDS011;4151;51.110;7.020;2023-04-03T09:44:21;2.90;;;1.37;;
8219;SDS011;4151;51.110;7.020;2023-04-03T09:46:48;4.60;;;1.30;;
8219;SDS011;4151;51.110;7.020;2023-04-03T09:49:14;7.63;;;1.30;;
8219;SDS011;4151;51.110;7.020;2023-04-03T09:51:40;3.33;;;1.10;;
8219;SDS011;4151;51.110;7.020;2023-04-03T09:57:01;2.63;;;1.00;;
8219;SDS011;4151;51.110;7.020;2023-04-03T09:59:31;6.87;;;2.40;;
8219;SDS011;4151;51.110;7.020;2023-04-03T10:01:58;5.43;;;1.40;;
8219;SDS011;4151;51.110;7.020;2023-04-03T10:04:36;3.97;;;1.40;;
8219;SDS011;4151;51.110;7.020;2023-04-03T10:07:04;2.40;;;1.33;;
8219;SDS011;4151;51.110;7.020;2023-04-03T10:10:16;4.13;;;1.30;;
8219;SDS011;4151;51.110;7.020;2023-04-03T10:12:44;2.00;;;1.13;;
8219;SDS011;4151;51.110;7.020;2023-04-03T10:15:11;1.50;;;1.03;;
8219;SDS011;4151;51.110;7.020;2023-04-03T10:20:35;2.80;;;1.40;;
8219;SDS011;4151;51.110;7.020;2023-04-03T10:28:14;2.70;;;0.90;;
8219;SDS011;4151;51.110;7.020;2023-04-03T10:31:00;1.97;;;1.10;;
8219;SDS011;4151;51.110;7.020;2023-04-03T10:39:17;2.40;;;1.00;;
8219;SDS011;4151;51.110;7.020;2023-04-03T10:47:13;2.30;;;0.93;;
8219;SDS011;4151;51.110;7.020;2023-04-03T10:57:56;3.93;;;1.03;;
8219;SDS011;4151;51.110;7.020;2023-04-03T11:00:26;3.33;;;0.90;;
8219;SDS011;4151;51.110;7.020;2023-04-03T11:02:56;2.30;;;1.27;;
8219;SDS011;4151;51.110;7.020;2023-04-03T11:05:35;2.60;;;1.10;;
8219;SDS011;4151;51.110;7.020;2023-04-03T11:08:08;2.43;;;0.97;;
8219;SDS011;4151;51.110;7.020;2023-04-03T11:10:42;1.20;;;0.80;;
8219;SDS011;4151;51.110;7.020;2023-04-03T11:13:17;1.93;;;0.80;;
8219;SDS011;4151;51.110;7.020;2023-04-03T11:15:57;5.33;;;1.03;;
8219;SDS011;4151;51.110;7.020;2023-04-03T11:19:08;2.10;;;1.30;;
8219;SDS011;4151;51.110;7.020;2023-04-03T11:21:37;2.30;;;1.13;;
8219;SDS011;4151;51.110;7.020;2023-04-03T11:24:05;2.40;;;0.87;;
8219;SDS011;4151;51.110;7.020;2023-04-03T11:26:36;2.67;;;1.30;;
8219;SDS011;4151;51.110;7.020;2023-04-03T11:29:06;2.80;;;1.30;;
8219;SDS011;4151;51.110;7.020;2023-04-03T11:34:40;2.10;;;1.00;;
8219;SDS011;4151;51.110;7.020;2023-04-03T11:39:57;2.90;;;1.30;;
8219;SDS011;4151;51.110;7.020;2023-04-03T11:45:29;4.20;;;1.00;;
8219;SDS011;4151;51.110;7.020;2023-04-03T11:47:56;1.57;;;1.00;;
8219;SDS011;4151;51.110;7.020;2023-04-03T11:58:16;4.33;;;2.77;;
8219;SDS011;4151;51.110;7.020;2023-04-03T12:05:53;1.20;;;0.77;;
8219;SDS011;4151;51.110;7.020;2023-04-03T12:16:04;2.90;;;1.23;;
8219;SDS011;4151;51.110;7.020;2023-04-03T12:21:06;1.83;;;1.00;;
8219;SDS011;4151;51.110;7.020;2023-04-03T12:23:33;1.90;;;1.07;;
8219;SDS011;4151;51.110;7.020;2023-04-03T12:26:20;3.87;;;1.00;;
8219;SDS011;4151;51.110;7.020;2023-04-03T12:28:47;3.13;;;1.10;;
8219;SDS011;4151;51.110;7.020;2023-04-03T12:31:14;3.37;;;1.00;;
8219;SDS011;4151;51.110;7.020;2023-04-03T12:36:42;1.57;;;1.03;;
8219;SDS011;4151;51.110;7.020;2023-04-03T12:39:41;3.10;;;1.27;;
8219;SDS011;4151;51.110;7.020;2023-04-03T12:51:20;4.70;;;1.47;;
8219;SDS011;4151;51.110;7.020;2023-04-03T12:53:54;2.50;;;0.90;;
8219;SDS011;4151;51.110;7.020;2023-04-03T12:56:27;2.80;;;1.20;;
8219;SDS011;4151;51.110;7.020;2023-04-03T12:59:12;2.13;;;1.10;;
8219;SDS011;4151;51.110;7.020;2023-04-03T13:01:43;6.17;;;1.10;;
8219;SDS011;4151;51.110;7.020;2023-04-03T13:04:17;1.90;;;1.10;;
8219;SDS011;4151;51.110;7.020;2023-04-03T13:06:43;3.97;;;1.57;;
8219;SDS011;4151;51.110;7.020;2023-04-03T13:09:23;2.50;;;1.10;;
8219;SDS011;4151;51.110;7.020;2023-04-03T13:11:57;2.63;;;1.23;;
8219;SDS011;4151;51.110;7.020;2023-04-03T13:14:24;2.20;;;1.13;;
8219;SDS011;4151;51.110;7.020;2023-04-03T13:16:56;5.10;;;1.50;;
8219;SDS011;4151;51.110;7.020;2023-04-03T13:19:25;6.53;;;1.57;;
8219;SDS011;4151;51.110;7.020;2023-04-03T13:21:54;3.97;;;1.47;;
8219;SDS011;4151;51.110;7.020;2023-04-03T13:24:28;2.20;;;1.10;;
8219;SDS011;4151;51.110;7.020;2023-04-03T13:26:55;2.73;;;1.13;;
8219;SDS011;4151;51.110;7.020;2023-04-03T13:29:32;4.87;;;1.30;;
8219;SDS011;4151;51.110;7.020;2023-04-03T13:32:04;1.83;;;0.90;;
8219;SDS011;4151;51.110;7.020;2023-04-03T13:34:40;3.47;;;1.47;;
8219;SDS011;4151;51.110;7.020;2023-04-03T13:37:13;2.37;;;1.37;;
8219;SDS011;4151;51.110;7.020;2023-04-03T13:39:56;5.10;;;1.60;;
8219;SDS011;4151;51.110;7.020;2023-04-03T13:42:42;2.63;;;1.20;;
8219;SDS011;4151;51.110;7.020;2023-04-03T13:47:43;2.23;;;1.20;;
8219;SDS011;4151;51.110;7.020;2023-04-03T13:52:46;1.80;;;1.20;;
8219;SDS011;4151;51.110;7.020;2023-04-03T13:57:57;1.97;;;1.20;;
8219;SDS011;4151;51.110;7.020;2023-04-03T14:00:29;5.23;;;1.70;;
8219;SDS011;4151;51.110;7.020;2023-04-03T14:03:02;3.93;;;1.33;;
8219;SDS011;4151;51.110;7.020;2023-04-03T14:05:36;3.90;;;1.30;;
8219;SDS011;4151;51.110;7.020;2023-04-03T14:08:02;2.87;;;1.20;;
8219;SDS011;4151;51.110;7.020;2023-04-03T14:10:27;2.03;;;1.20;;
8219;SDS011;4151;51.110;7.020;2023-04-03T14:12:53;1.97;;;1.20;;
8219;SDS011;4151;51.110;7.020;2023-04-03T14:15:23;3.23;;;1.30;;
8219;SDS011;4151;51.110;7.020;2023-04-03T14:17:52;3.30;;;1.37;;
8219;SDS011;4151;51.110;7.020;2023-04-03T14:20:19;2.30;;;1.17;;
8219;SDS011;4151;51.110;7.020;2023-04-03T14:22:48;6.17;;;1.73;;
8219;SDS011;4151;51.110;7.020;2023-04-03T14:25:14;2.60;;;1.40;;
8219;SDS011;4151;51.110;7.020;2023-04-03T14:27:42;2.60;;;1.20;;
8219;SDS011;4151;51.110;7.020;2023-04-03T14:30:18;2.07;;;1.30;;
8219;SDS011;4151;51.110;7.020;2023-04-03T14:32:47;4.47;;;1.30;;
8219;SDS011;4151;51.110;7.020;2023-04-03T14:35:14;3.00;;;1.10;;
8219;SDS011;4151;51.110;7.020;2023-04-03T14:37:41;2.17;;;1.20;;
8219;SDS011;4151;51.110;7.020;2023-04-03T14:40:08;3.27;;;1.50;;
8219;SDS011;4151;51.110;7.020;2023-04-03T14:42:37;5.10;;;1.20;;
8219;SDS011;4151;51.110;7.020;2023-04-03T14:45:04;3.00;;;1.20;;
8219;SDS011;4151;51.110;7.020;2023-04-03T14:47:32;2.83;;;1.33;;
8219;SDS011;4151;51.110;7.020;2023-04-03T14:50:03;2.57;;;1.30;;
8219;SDS011;4151;51.110;7.020;2023-04-03T14:52:32;5.37;;;1.20;;
8219;SDS011;4151;51.110;7.020;2023-04-03T14:55:00;2.67;;;1.50;;
8219;SDS011;4151;51.110;7.020;2023-04-03T14:57:29;4.10;;;1.10;;
8219;SDS011;4151;51.110;7.020;2023-04-03T14:59:55;3.23;;;1.40;;
8219;SDS011;4151;51.110;7.020;2023-04-03T15:05:01;4.03;;;1.10;;
8219;SDS011;4151;51.110;7.020;2023-04-03T15:07:29;2.50;;;1.50;;
8219;SDS011;4151;51.110;7.020;2023-04-03T15:10:00;3.13;;;1.50;;
8219;SDS011;4151;51.110;7.020;2023-04-03T15:12:31;6.87;;;1.20;;
8219;SDS011;4151;51.110;7.020;2023-04-03T15:14:57;2.13;;;1.30;;
8219;SDS011;4151;51.110;7.020;2023-04-03T15:17:22;4.20;;;1.13;;
8219;SDS011;4151;51.110;7.020;2023-04-03T15:19:48;2.80;;;1.30;;
8219;SDS011;4151;51.110;7.020;2023-04-03T15:22:15;2.40;;;1.40;;
8219;SDS011;4151;51.110;7.020;2023-04-03T15:24:42;2.87;;;1.37;;
8219;SDS011;4151;51.110;7.020;2023-04-03T15:27:09;3.90;;;2.27;;
8219;SDS011;4151;51.110;7.020;2023-04-03T15:29:35;5.87;;;3.80;;
8219;SDS011;4151;51.110;7.020;2023-04-03T15:32:01;6.43;;;2.90;;
8219;SDS011;4151;51.110;7.020;2023-04-03T15:34:27;3.03;;;1.50;;
8219;SDS011;4151;51.110;7.020;2023-04-03T15:36:53;4.57;;;1.60;;
8219;SDS011;4151;51.110;7.020;2023-04-03T15:39:19;6.87;;;2.73;;
8219;SDS011;4151;51.110;7.020;2023-04-03T15:41:45;2.97;;;1.40;;
8219;SDS011;4151;51.110;7.020;2023-04-03T15:44:11;3.40;;;1.23;;
8219;SDS011;4151;51.110;7.020;2023-04-03T15:46:38;6.67;;;1.20;;
8219;SDS011;4151;51.110;7.020;2023-04-03T15:49:04;1.53;;;1.10;;
8219;SDS011;4151;51.110;7.020;2023-04-03T15:51:30;1.47;;;1.20;;
8219;SDS011;4151;51.110;7.020;2023-04-03T15:53:56;2.30;;;1.20;;
8219;SDS011;4151;51.110;7.020;2023-04-03T15:56:22;5.07;;;1.40;;
8219;SDS011;4151;51.110;7.020;2023-04-03T15:58:47;1.93;;;1.10;;
8219;SDS011;4151;51.110;7.020;2023-04-03T16:01:13;4.50;;;1.30;;
8219;SDS011;4151;51.110;7.020;2023-04-03T16:03:40;3.63;;;1.13;;
8219;SDS011;4151;51.110;7.020;2023-04-03T16:06:10;3.03;;;1.20;;
8219;SDS011;4151;51.110;7.020;2023-04-03T16:08:37;3.43;;;1.43;;
8219;SDS011;4151;51.110;7.020;2023-04-03T16:11:02;2.70;;;1.37;;
8219;SDS011;4151;51.110;7.020;2023-04-03T16:13:28;3.60;;;1.00;;
8219;SDS011;4151;51.110;7.020;2023-04-03T16:15:54;2.80;;;1.20;;
8219;SDS011;4151;51.110;7.020;2023-04-03T16:18:20;4.20;;;1.20;;
8219;SDS011;4151;51.110;7.020;2023-04-03T16:20:46;3.10;;;1.30;;
8219;SDS011;4151;51.110;7.020;2023-04-03T16:23:12;5.20;;;1.33;;
8219;SDS011;4151;51.110;7.020;2023-04-03T16:25:38;2.00;;;1.10;;
8219;SDS011;4151;51.110;7.020;2023-04-03T16:28:03;2.70;;;1.27;;
8219;SDS011;4151;51.110;7.020;2023-04-03T16:30:29;1.70;;;1.00;;
8219;SDS011;4151;51.110;7.020;2023-04-03T16:32:54;3.13;;;1.50;;
8219;SDS011;4151;51.110;7.020;2023-04-03T16:35:21;3.20;;;1.53;;
8219;SDS011;4151;51.110;7.020;2023-04-03T16:37:47;2.70;;;1.17;;
8219;SDS011;4151;51.110;7.020;2023-04-03T16:40:14;1.67;;;1.17;;
8219;SDS011;4151;51.110;7.020;2023-04-03T16:42:39;6.13;;;1.50;;
8219;SDS011;4151;51.110;7.020;2023-04-03T16:45:05;3.97;;;1.40;;
8219;SDS011;4151;51.110;7.020;2023-04-03T16:47:32;5.63;;;1.20;;
8219;SDS011;4151;51.110;7.020;2023-04-03T16:49:57;4.37;;;1.67;;
8219;SDS011;4151;51.110;7.020;2023-04-03T16:52:23;3.50;;;1.50;;
8219;SDS011;4151;51.110;7.020;2023-04-03T16:54:49;5.20;;;1.63;;
8219;SDS011;4151;51.110;7.020;2023-04-03T16:57:16;3.20;;;1.30;;
8219;SDS011;4151;51.110;7.020;2023-04-03T16:59:42;1.87;;;1.30;;